createdAt,value
2019-03-05T00:01:21.598Z,10.40
2019-03-05T00:03:53.317Z,10.30
2019-03-05T00:06:25.123Z,10.20
2019-03-05T00:08:56.767Z,10.20
2019-03-05T00:11:29.544Z,10.00
2019-03-05T00:14:01.490Z,10.00
2019-03-05T00:16:33.151Z,9.80
2019-03-05T00:19:04.940Z,9.70
2019-03-05T00:21:36.551Z,9.70
2019-03-05T00:25:13.451Z,9.60
2019-03-05T00:27:52.106Z,9.50
2019-03-05T00:30:33.430Z,9.40
2019-03-05T00:33:16.381Z,9.30
2019-03-05T00:36:06.171Z,9.20
2019-03-05T00:39:20.871Z,9.20
2019-03-05T00:42:44.220Z,9.10
2019-03-05T00:45:44.733Z,8.90
2019-03-05T00:48:27.899Z,8.80
2019-03-05T00:51:26.005Z,8.70
2019-03-05T00:54:34.947Z,8.70
2019-03-05T00:57:28.332Z,8.60
2019-03-05T01:00:16.843Z,8.50
2019-03-05T01:03:04.995Z,8.50
2019-03-05T01:05:52.114Z,8.40
2019-03-05T01:08:24.005Z,8.40
2019-03-05T01:10:55.786Z,8.30
2019-03-05T01:13:28.037Z,8.30
2019-03-05T01:15:59.734Z,8.20
2019-03-05T01:18:31.429Z,8.20
2019-03-05T01:21:03.592Z,8.20
2019-03-05T01:23:35.386Z,8.10
2019-03-05T01:26:07.121Z,8.10
2019-03-05T01:28:38.944Z,8.10
2019-03-05T01:31:46.096Z,8.00
2019-03-05T01:34:28.710Z,7.90
2019-03-05T01:37:01.711Z,7.90
2019-03-05T01:39:55.318Z,7.80
2019-03-05T01:42:27.127Z,7.80
2019-03-05T01:44:58.828Z,7.70
2019-03-05T01:47:30.690Z,7.70
2019-03-05T01:50:02.356Z,7.70
2019-03-05T01:52:34.224Z,7.60
2019-03-05T01:55:06.141Z,7.70
2019-03-05T01:57:38.995Z,7.70
2019-03-05T02:00:12.136Z,7.70
2019-03-05T02:02:44.069Z,7.70
2019-03-05T02:05:18.630Z,7.70
2019-03-05T02:07:50.911Z,7.70
2019-03-05T02:10:23.103Z,7.70
2019-03-05T02:12:55.899Z,7.80
2019-03-05T02:15:27.682Z,7.80
2019-03-05T02:17:59.643Z,7.80
2019-03-05T02:20:32.413Z,7.70
2019-03-05T02:23:17.921Z,7.80
2019-03-05T02:26:07.443Z,7.80
2019-03-05T02:29:10.783Z,7.80
2019-03-05T02:32:07.271Z,7.80
2019-03-05T02:35:23.054Z,7.80
2019-03-05T02:38:31.541Z,7.80
2019-03-05T02:41:43.317Z,7.80
2019-03-05T02:44:44.224Z,7.80
2019-03-05T02:47:48.183Z,7.80
2019-03-05T02:50:56.398Z,7.80
2019-03-05T02:54:04.221Z,7.80
2019-03-05T02:56:46.962Z,7.80
2019-03-05T02:59:16.752Z,7.80
2019-03-05T03:02:05.960Z,7.80
2019-03-05T03:04:41.388Z,7.80
2019-03-05T03:07:13.311Z,7.70
2019-03-05T03:10:13.815Z,7.80
2019-03-05T03:12:46.144Z,7.80
2019-03-05T03:15:18.864Z,7.70
2019-03-05T03:17:51.123Z,7.70
2019-03-05T03:20:23.681Z,7.70
2019-03-05T03:22:55.312Z,7.70
2019-03-05T03:25:27.329Z,7.70
2019-03-05T03:27:59.186Z,7.70
2019-03-05T03:30:31.081Z,7.70
2019-03-05T03:33:03.170Z,7.70
2019-03-05T03:35:35.060Z,7.70
2019-03-05T03:38:07.175Z,7.70
2019-03-05T03:40:38.979Z,7.70
2019-03-05T03:43:10.672Z,7.70
2019-03-05T03:45:42.403Z,7.70
2019-03-05T03:48:14.383Z,7.70
2019-03-05T03:50:46.411Z,7.70
2019-03-05T03:53:18.173Z,7.70
2019-03-05T03:55:50.145Z,7.60
2019-03-05T03:58:22.181Z,7.60
2019-03-05T04:00:54.058Z,7.60
2019-03-05T04:03:26.101Z,7.60
2019-03-05T04:05:58.103Z,7.60
2019-03-05T04:08:29.904Z,7.60
2019-03-05T04:11:01.671Z,7.60
2019-03-05T04:13:33.445Z,7.60
2019-03-05T04:16:05.266Z,7.60
2019-03-05T04:18:37.143Z,7.60
2019-03-05T04:21:09.135Z,7.60
2019-03-05T04:23:40.834Z,7.50
2019-03-05T04:26:12.687Z,7.50
2019-03-05T04:28:44.443Z,7.50
2019-03-05T04:31:16.238Z,7.50
2019-03-05T04:33:48.175Z,7.50
2019-03-05T04:36:19.933Z,7.50
2019-03-05T04:38:51.736Z,7.50
2019-03-05T04:41:23.555Z,7.40
2019-03-05T04:43:55.454Z,7.40
2019-03-05T04:46:52.327Z,7.40
2019-03-05T04:49:46.449Z,7.40
2019-03-05T04:52:21.081Z,7.40
2019-03-05T04:54:53.301Z,7.30
2019-03-05T04:57:25.236Z,7.30
2019-03-05T04:59:58.049Z,7.30
2019-03-05T05:02:29.842Z,7.20
2019-03-05T05:05:01.705Z,7.20
2019-03-05T05:07:33.447Z,7.10
2019-03-05T05:10:05.514Z,7.10
2019-03-05T05:12:37.190Z,7.10
2019-03-05T05:15:24.450Z,7.00
2019-03-05T05:17:56.125Z,7.00
2019-03-05T05:20:28.329Z,6.90
2019-03-05T05:23:00.066Z,6.90
2019-03-05T05:25:32.204Z,6.80
2019-03-05T05:28:04.138Z,6.80
2019-03-05T05:30:37.490Z,6.80
2019-03-05T05:33:09.409Z,6.70
2019-03-05T05:35:41.733Z,6.70
2019-03-05T05:38:13.545Z,6.70
2019-03-05T05:40:46.393Z,6.60
2019-03-05T05:43:23.276Z,6.60
2019-03-05T05:45:55.232Z,6.60
2019-03-05T05:48:27.216Z,6.60
2019-03-05T05:50:59.598Z,6.60
2019-03-05T05:53:31.794Z,6.60
2019-03-05T05:56:03.842Z,6.60
2019-03-05T05:58:35.729Z,6.60
2019-03-05T06:01:11.184Z,6.60
2019-03-05T06:03:43.011Z,6.60
2019-03-05T06:06:15.067Z,6.60
2019-03-05T06:08:47.349Z,6.70
2019-03-05T06:11:19.098Z,6.80
2019-03-05T06:13:50.909Z,6.80
2019-03-05T06:16:22.889Z,6.70
2019-03-05T06:18:54.640Z,6.70
2019-03-05T06:21:28.098Z,7.10
2019-03-05T06:24:00.758Z,7.40
2019-03-05T06:26:32.634Z,9.00
2019-03-05T06:29:05.870Z,9.80
2019-03-05T06:31:37.619Z,10.30
2019-03-05T06:34:09.695Z,10.60
2019-03-05T06:36:57.933Z,11.00
2019-03-05T06:39:29.832Z,11.50
2019-03-05T06:42:01.746Z,11.90
2019-03-05T06:44:33.605Z,12.10
2019-03-05T06:47:06.359Z,12.10
2019-03-05T06:49:38.100Z,12.30
2019-03-05T06:52:11.664Z,11.90
2019-03-05T06:54:43.348Z,12.10
2019-03-05T06:57:15.158Z,12.10
2019-03-05T06:59:46.868Z,12.10
2019-03-05T07:02:18.734Z,11.50
2019-03-05T07:04:59.842Z,11.00
2019-03-05T07:07:32.661Z,11.10
2019-03-05T07:10:35.931Z,11.20
2019-03-05T07:13:17.560Z,10.40
2019-03-05T07:16:21.111Z,9.90
2019-03-05T07:19:20.021Z,9.60
2019-03-05T07:22:06.868Z,9.30
2019-03-05T07:24:57.154Z,9.10
2019-03-05T07:27:40.102Z,9.90
2019-03-05T07:30:22.347Z,10.20
2019-03-05T07:32:54.826Z,10.30
2019-03-05T07:35:28.369Z,10.70
2019-03-05T07:38:00.294Z,11.10
2019-03-05T07:40:32.455Z,11.20
2019-03-05T07:43:04.351Z,11.40
2019-03-05T07:45:36.030Z,11.50
2019-03-05T07:48:07.814Z,11.70
2019-03-05T07:50:39.669Z,11.80
2019-03-05T07:53:11.713Z,11.70
2019-03-05T07:55:43.661Z,12.10
2019-03-05T07:58:15.596Z,12.40
2019-03-05T08:00:47.423Z,12.40
2019-03-05T08:03:19.171Z,12.00
2019-03-05T08:05:51.116Z,11.90
2019-03-05T08:08:58.417Z,11.60
2019-03-05T08:11:31.808Z,11.70
2019-03-05T08:14:52.375Z,12.00
2019-03-05T08:17:24.975Z,11.20
2019-03-05T08:19:56.817Z,12.00
2019-03-05T08:22:28.634Z,12.20
2019-03-05T08:25:00.371Z,11.80
2019-03-05T08:27:32.261Z,11.40
2019-03-05T08:30:14.215Z,11.10
2019-03-05T08:32:39.716Z,10.70
2019-03-05T08:35:12.010Z,10.40
2019-03-05T08:37:43.850Z,10.10
2019-03-05T08:40:16.508Z,10.00
2019-03-05T08:42:48.472Z,10.10
2019-03-05T08:45:28.981Z,10.10
2019-03-05T08:47:53.585Z,9.80
2019-03-05T08:50:25.276Z,9.70
2019-03-05T08:52:57.295Z,9.60
2019-03-05T08:55:29.032Z,9.70
2019-03-05T08:58:01.048Z,9.70
2019-03-05T09:00:32.741Z,9.50
2019-03-05T09:03:04.512Z,9.50
2019-03-05T09:05:36.465Z,9.50
2019-03-05T09:08:08.671Z,9.50
2019-03-05T09:10:40.531Z,9.60
2019-03-05T09:13:12.466Z,9.50
2019-03-05T09:15:44.545Z,9.40
2019-03-05T09:18:16.465Z,9.40
2019-03-05T09:20:48.753Z,9.60
2019-03-05T09:23:20.661Z,9.70
2019-03-05T09:25:52.301Z,9.70
2019-03-05T09:28:24.232Z,9.60
2019-03-05T09:30:55.976Z,9.50
2019-03-05T09:33:27.795Z,9.60
2019-03-05T09:35:59.529Z,9.70
2019-03-05T09:38:32.094Z,9.70
2019-03-05T09:41:03.888Z,10.00
2019-03-05T09:43:35.739Z,10.10
2019-03-05T09:46:07.477Z,10.40
2019-03-05T09:48:39.500Z,10.70
2019-03-05T09:51:11.332Z,10.80
2019-03-05T09:53:43.273Z,11.00
2019-03-05T09:56:15.162Z,11.00
2019-03-05T09:58:47.331Z,11.20
2019-03-05T10:01:20.796Z,11.30
2019-03-05T10:03:52.564Z,11.50
2019-03-05T10:06:24.241Z,11.40
2019-03-05T10:08:56.185Z,11.10
2019-03-05T10:11:27.863Z,10.90
2019-03-05T10:13:59.680Z,10.90
2019-03-05T10:16:31.485Z,11.00
2019-03-05T10:19:04.530Z,11.00
2019-03-05T10:21:45.847Z,10.80
2019-03-05T10:24:10.942Z,10.80
2019-03-05T10:26:42.913Z,10.60
2019-03-05T10:29:14.737Z,10.50
2019-03-05T10:31:46.602Z,10.20
2019-03-05T10:34:18.884Z,9.90
2019-03-05T10:36:50.927Z,9.80
2019-03-05T10:39:30.927Z,9.70
2019-03-05T10:42:03.943Z,9.50
2019-03-05T10:44:35.834Z,9.60
2019-03-05T10:47:07.521Z,9.50
2019-03-05T10:49:39.286Z,9.50
2019-03-05T10:52:11.165Z,9.60
2019-03-05T10:54:43.121Z,9.70
2019-03-05T10:57:15.699Z,9.60
2019-03-05T10:59:47.379Z,9.70
2019-03-05T11:02:19.825Z,9.80
2019-03-05T11:04:52.454Z,9.60
2019-03-05T11:07:24.421Z,9.60
2019-03-05T11:09:56.550Z,9.60
2019-03-05T11:12:28.498Z,9.50
2019-03-05T11:15:00.413Z,9.50
2019-03-05T11:17:33.308Z,9.30
2019-03-05T11:20:06.595Z,9.20
2019-03-05T11:22:40.109Z,9.10
2019-03-05T11:25:13.338Z,9.00
2019-03-05T11:27:45.088Z,8.90
2019-03-05T11:30:22.852Z,8.90
2019-03-05T11:32:54.741Z,8.80
2019-03-05T11:35:27.653Z,8.80
2019-03-05T11:37:59.432Z,8.60
2019-03-05T11:40:31.884Z,8.60
2019-03-05T11:43:10.620Z,8.60
2019-03-05T11:45:44.356Z,8.60
2019-03-05T11:48:17.843Z,8.50
2019-03-05T11:50:51.631Z,8.40
2019-03-05T11:53:23.296Z,8.40
2019-03-05T11:55:55.091Z,8.50
2019-03-05T11:58:26.937Z,8.50
2019-03-05T12:01:17.707Z,8.60
2019-03-05T12:03:49.581Z,8.60
2019-03-05T12:06:21.238Z,8.60
2019-03-05T12:08:53.043Z,8.60
2019-03-05T12:11:24.786Z,8.70
2019-03-05T12:13:57.581Z,8.70
2019-03-05T12:16:29.930Z,8.80
2019-03-05T12:19:01.579Z,8.90
2019-03-05T12:21:33.307Z,9.00
2019-03-05T12:24:05.095Z,8.90
2019-03-05T12:26:36.857Z,8.80
2019-03-05T12:29:08.992Z,8.70
2019-03-05T12:31:40.950Z,8.60
2019-03-05T12:34:12.809Z,8.50
2019-03-05T12:36:44.995Z,8.50
2019-03-05T12:39:19.630Z,8.50
2019-03-05T12:41:51.559Z,8.40
2019-03-05T12:44:23.265Z,8.30
2019-03-05T12:46:55.138Z,8.30
2019-03-05T12:49:26.959Z,8.20
2019-03-05T12:51:58.754Z,8.20
2019-03-05T12:54:31.313Z,8.20
2019-03-05T12:57:03.999Z,8.10
2019-03-05T12:59:35.671Z,8.20
2019-03-05T13:02:07.602Z,8.20
2019-03-05T13:04:39.282Z,8.20
2019-03-05T13:07:14.164Z,8.20
2019-03-05T13:09:45.501Z,8.20
2019-03-05T13:12:17.574Z,8.20
2019-03-05T13:14:49.535Z,8.20
2019-03-05T13:17:21.548Z,8.30
2019-03-05T13:19:53.753Z,8.30
2019-03-05T13:22:28.869Z,8.30
2019-03-05T13:24:59.176Z,8.30
2019-03-05T13:27:31.043Z,8.30
2019-03-05T13:30:02.919Z,8.30
2019-03-05T13:32:35.605Z,8.20
2019-03-05T13:35:08.745Z,8.20
2019-03-05T13:37:40.875Z,8.20
2019-03-05T13:40:16.004Z,8.20
2019-03-05T13:42:48.003Z,8.30
2019-03-05T13:45:20.010Z,8.50
2019-03-05T13:47:58.135Z,8.50
2019-03-05T13:51:07.876Z,8.80
2019-03-05T13:54:09.576Z,9.00
2019-03-05T13:57:31.746Z,9.10
2019-03-05T14:00:03.581Z,9.20
2019-03-05T14:03:19.528Z,9.30
2019-03-05T14:06:19.894Z,9.30
2019-03-05T14:09:16.200Z,9.30
2019-03-05T14:11:51.490Z,9.40
2019-03-05T14:14:27.575Z,9.40
2019-03-05T14:17:10.414Z,9.40
2019-03-05T14:19:42.349Z,9.50
2019-03-05T14:22:14.185Z,9.30
2019-03-05T14:24:46.175Z,9.30
2019-03-05T14:27:18.166Z,9.30
2019-03-05T14:29:50.041Z,9.30
2019-03-05T14:32:21.862Z,9.30
2019-03-05T14:35:04.392Z,9.30
2019-03-05T14:37:36.261Z,9.30
2019-03-05T14:40:23.710Z,9.30
2019-03-05T14:42:44.833Z,9.30
2019-03-05T14:45:22.422Z,9.30
2019-03-05T14:47:56.132Z,9.30
2019-03-05T14:50:27.857Z,9.30
2019-03-05T14:52:59.674Z,9.30
2019-03-05T14:55:31.573Z,9.30
2019-03-05T14:58:03.439Z,9.30
2019-03-05T15:00:35.164Z,9.30
2019-03-05T15:03:07.288Z,9.40
2019-03-05T15:05:39.195Z,9.40
2019-03-05T15:08:11.957Z,9.30
2019-03-05T15:10:44.427Z,9.20
2019-03-05T15:13:19.904Z,9.20
2019-03-05T15:15:50.080Z,9.30
2019-03-05T15:18:22.398Z,9.20
2019-03-05T15:20:54.247Z,9.20
2019-03-05T15:23:25.908Z,9.10
2019-03-05T15:25:57.921Z,9.10
2019-03-05T15:28:29.791Z,9.00
2019-03-05T15:31:01.760Z,9.00
2019-03-05T15:33:33.511Z,9.00
2019-03-05T15:36:05.204Z,9.00
2019-03-05T15:38:37.157Z,9.10
2019-03-05T15:41:09.186Z,9.10
2019-03-05T15:43:40.972Z,9.00
2019-03-05T15:46:12.641Z,9.00
2019-03-05T15:48:44.705Z,8.90
2019-03-05T15:51:16.572Z,8.80
2019-03-05T15:53:48.720Z,8.80
2019-03-05T15:56:20.510Z,8.80
2019-03-05T15:58:52.351Z,8.60
2019-03-05T16:01:24.203Z,8.60
2019-03-05T16:03:55.912Z,8.60
2019-03-05T16:06:30.167Z,8.60
2019-03-05T16:09:02.252Z,8.50
2019-03-05T16:11:36.295Z,8.50
2019-03-05T16:14:07.996Z,8.60
2019-03-05T16:16:39.994Z,8.60
2019-03-05T16:19:12.466Z,8.50
2019-03-05T16:21:45.022Z,8.50
2019-03-05T16:24:16.896Z,8.40
2019-03-05T16:26:48.672Z,8.20
2019-03-05T16:29:20.942Z,7.80
2019-03-05T16:32:19.000Z,7.50
2019-03-05T16:35:10.109Z,7.40
2019-03-05T16:38:07.265Z,7.20
2019-03-05T16:41:02.778Z,7.10
2019-03-05T16:43:59.540Z,7.00
2019-03-05T16:46:45.920Z,6.90
2019-03-05T16:49:45.853Z,6.80
2019-03-05T16:52:27.027Z,6.90
2019-03-05T16:55:16.824Z,6.80
2019-03-05T16:58:19.607Z,6.70
2019-03-05T17:01:19.936Z,6.60
2019-03-05T17:04:11.057Z,6.60
2019-03-05T17:07:07.801Z,6.50
2019-03-05T17:09:51.841Z,6.40
2019-03-05T17:12:23.806Z,6.40
2019-03-05T17:14:55.556Z,6.40
2019-03-05T17:17:27.253Z,6.30
2019-03-05T17:19:58.882Z,6.30
2019-03-05T17:22:30.633Z,6.30
2019-03-05T17:25:02.281Z,6.30
2019-03-05T17:27:34.156Z,6.20
2019-03-05T17:30:09.651Z,6.20
2019-03-05T17:32:42.646Z,6.10
2019-03-05T17:35:15.885Z,6.10
2019-03-05T17:37:49.926Z,6.10
2019-03-05T17:40:21.689Z,6.10
2019-03-05T17:42:53.562Z,6.10
2019-03-05T17:45:25.657Z,6.10
2019-03-05T17:47:57.544Z,6.10
2019-03-05T17:50:29.225Z,6.10
2019-03-05T17:53:00.707Z,6.10
2019-03-05T17:55:32.581Z,6.10
2019-03-05T17:58:04.545Z,6.10
2019-03-05T18:00:37.287Z,6.10
2019-03-05T18:03:09.253Z,6.10
2019-03-05T18:05:40.650Z,6.10
2019-03-05T18:08:12.592Z,6.00
2019-03-05T18:10:44.316Z,6.00
2019-03-05T18:13:16.089Z,6.00
2019-03-05T18:15:48.895Z,6.00
2019-03-05T18:18:20.660Z,6.00
2019-03-05T18:20:52.212Z,6.00
2019-03-05T18:23:24.113Z,6.00
2019-03-05T18:25:55.676Z,6.00
2019-03-05T18:28:27.680Z,6.00
2019-03-05T18:30:59.206Z,6.00
2019-03-05T18:33:30.831Z,6.00
2019-03-05T18:36:02.435Z,6.00
2019-03-05T18:38:33.923Z,6.00
2019-03-05T18:41:05.543Z,6.00
2019-03-05T18:43:36.908Z,6.00
2019-03-05T18:46:08.726Z,6.00
2019-03-05T18:48:40.169Z,6.00
2019-03-05T18:51:11.836Z,6.10
2019-03-05T18:53:43.318Z,6.10
2019-03-05T18:56:14.764Z,6.00
2019-03-05T18:58:46.234Z,6.10
2019-03-05T19:01:17.685Z,6.00
2019-03-05T19:03:49.274Z,6.00
2019-03-05T19:06:20.744Z,6.00
2019-03-05T19:08:52.134Z,6.00
2019-03-05T19:11:23.585Z,6.00
2019-03-05T19:13:55.398Z,6.00
2019-03-05T19:16:26.924Z,6.00
2019-03-05T19:18:58.333Z,6.00
2019-03-05T19:21:29.859Z,6.00
2019-03-05T19:24:01.325Z,6.00
2019-03-05T19:26:33.875Z,6.00
2019-03-05T19:29:05.574Z,6.00
2019-03-05T19:31:37.613Z,6.10
2019-03-05T19:34:09.325Z,6.00
2019-03-05T19:36:40.989Z,6.10
2019-03-05T19:39:14.145Z,6.10
2019-03-05T19:41:55.629Z,6.10
2019-03-05T19:44:19.985Z,6.20
2019-03-05T19:46:51.485Z,6.20
2019-03-05T19:49:23.115Z,6.20
2019-03-05T19:51:55.045Z,6.20
2019-03-05T19:54:26.748Z,6.30
2019-03-05T19:56:58.255Z,6.30
2019-03-05T19:59:30.152Z,6.30
2019-03-05T20:02:01.933Z,6.30
2019-03-05T20:04:34.587Z,6.30
2019-03-05T20:07:06.049Z,6.30
2019-03-05T20:09:37.587Z,6.30
2019-03-05T20:12:09.346Z,6.30
2019-03-05T20:14:40.925Z,6.30
2019-03-05T20:17:12.410Z,6.30
2019-03-05T20:19:43.942Z,6.20
2019-03-05T20:22:16.016Z,6.30
2019-03-05T20:24:48.707Z,6.30
2019-03-05T20:27:20.306Z,6.20
2019-03-05T20:29:52.328Z,6.20
2019-03-05T20:32:24.426Z,6.20
2019-03-05T20:34:57.876Z,6.20
2019-03-05T20:37:29.276Z,6.10
2019-03-05T20:40:02.848Z,6.10
2019-03-05T20:42:36.553Z,6.00
2019-03-05T20:45:12.427Z,5.90
2019-03-05T20:47:44.006Z,5.90
2019-03-05T20:50:16.326Z,5.90
2019-03-05T20:52:48.184Z,5.80
2019-03-05T20:55:20.758Z,5.80
2019-03-05T20:57:52.786Z,5.80
2019-03-05T21:00:30.654Z,5.80
2019-03-05T21:03:04.646Z,5.80
2019-03-05T21:05:41.811Z,5.70
2019-03-05T21:08:15.602Z,5.70
2019-03-05T21:10:47.100Z,5.70
2019-03-05T21:13:19.196Z,5.60
2019-03-05T21:15:52.032Z,5.60
2019-03-05T21:18:24.036Z,5.60
2019-03-05T21:20:56.061Z,5.50
2019-03-05T21:23:28.159Z,5.60
2019-03-05T21:25:59.746Z,5.50
2019-03-05T21:28:32.716Z,5.50
2019-03-05T21:31:05.437Z,5.50
2019-03-05T21:33:37.497Z,5.50
2019-03-05T21:36:10.612Z,5.40
2019-03-05T21:38:43.067Z,5.40
2019-03-05T21:41:15.487Z,5.40
2019-03-05T21:43:47.224Z,5.40
2019-03-05T21:46:19.916Z,5.40
2019-03-05T21:48:51.366Z,5.40
2019-03-05T21:51:23.620Z,5.30
2019-03-05T21:53:55.505Z,5.30
2019-03-05T21:56:27.456Z,5.30
2019-03-05T21:59:00.317Z,5.30
2019-03-05T22:01:32.716Z,5.20
2019-03-05T22:04:04.396Z,5.20
2019-03-05T22:06:36.177Z,5.20
2019-03-05T22:09:09.655Z,5.20
2019-03-05T22:11:42.664Z,5.20
2019-03-05T22:14:15.049Z,5.10
2019-03-05T22:16:46.639Z,5.10
2019-03-05T22:19:18.967Z,5.10
2019-03-05T22:21:51.457Z,5.10
2019-03-05T22:24:22.935Z,5.10
2019-03-05T22:26:56.876Z,5.10
2019-03-05T22:29:28.447Z,5.10
2019-03-05T22:32:00.114Z,5.00
2019-03-05T22:34:31.677Z,5.00
2019-03-05T22:37:04.363Z,5.00
2019-03-05T22:39:35.919Z,4.90
2019-03-05T22:42:07.448Z,4.90
2019-03-05T22:44:38.995Z,4.90
2019-03-05T22:47:10.416Z,4.90
2019-03-05T22:49:41.857Z,4.80
2019-03-05T22:52:13.247Z,4.80
2019-03-05T22:54:44.656Z,4.80
2019-03-05T22:57:16.034Z,4.70
2019-03-05T22:59:47.535Z,4.70
2019-03-05T23:02:18.925Z,4.70
2019-03-05T23:04:50.612Z,4.70
2019-03-05T23:07:22.091Z,4.70
2019-03-05T23:09:53.544Z,4.60
2019-03-05T23:12:26.228Z,4.60
2019-03-05T23:14:57.774Z,4.60
2019-03-05T23:17:29.496Z,4.60
2019-03-05T23:20:01.046Z,4.60
2019-03-05T23:22:32.594Z,4.60
2019-03-05T23:25:04.639Z,4.60
2019-03-05T23:27:37.545Z,4.60
2019-03-05T23:30:11.112Z,4.50
2019-03-05T23:32:43.055Z,4.50
2019-03-05T23:35:15.348Z,4.50
2019-03-05T23:37:46.969Z,4.40
2019-03-05T23:40:18.907Z,4.40
2019-03-05T23:42:50.360Z,4.40
2019-03-05T23:45:22.336Z,4.40
2019-03-05T23:47:53.755Z,4.40
2019-03-05T23:50:25.325Z,4.30
2019-03-05T23:52:57.334Z,4.30
2019-03-05T23:55:28.703Z,4.30
2019-03-05T23:58:00.526Z,4.30
